Capon Springs, WV

23:29 EDT le 24 octobre 2014 (GMT -0400)
Greater Cumberland Regional | Change Station
CLOSE
Current Station
Aéroport
Location: Cumberland,
Altitude: 774 ft
Stations météo à proximité

Alt. 774 ft 39.62 °N, 78.76 °W | Updated 11 minutes ago

Ciel dégagé
Ciel dégagé
45 ° F
Paraît 45 ° F
N
0
Vent Variable Vent de Nord

Aujourd'hui
Haut(e) -- | Bas -- ° F
--% Risque de précip.
Hier
Haut(e) -- | Bas -- ° F
Precip. -- pouce
7:32 AM 6:22 PM
Nouvelle lune, 2% visible
Pression 30.05 pouce
Visibilité 10.0 Miles terrestres
Nuages Ciel dégagé
Point de rosée 39 ° F
Humidité 81%
Précipitations 0.00 pouce
Profondeur de la couche neigeuse Non disponible.
UV 0 sur 12
Pollen 2.20 sur 12
Qualité de l'air Non disponible.
Flu Activity Sporadic
METAR KCBE 250318Z AUTO 00000KT 10SM CLR 07/04 A3005 RMK AO1

More Conditions Fewer Conditions

Pression 30.05 pouce
Visibilité 10.0 Miles terrestres
Nuages Ciel dégagé
Point de rosée 39 ° F
Humidité 81%
Précipitations 0.00 pouce
Profondeur de la couche neigeuse Non disponible.
UV 0 sur 12
Pollen 2.20 sur 12
Qualité de l'air Non disponible.
Flu Activity Sporadic
METAR KCBE 250318Z AUTO 00000KT 10SM CLR 07/04 A3005 RMK AO1

More Conditions Fewer Conditions

10-Day Weather Forecast

Almanac

Astronomie

Oct. 24, 2014 Lever Coucher
Temps réel 07:32 EDT 18:22 EDT
Crépuscule civil 07:05 EDT 18:50 EDT
Crépuscule nautique 06:34 EDT 19:21 EDT
Crépuscule astronomique 06:03 EDT 19:52 EDT
Lune 08:09 EDT (10/24) 19:01 EDT (10/24)
Durée de lumière visible 11h 44m
Longueur du jour
10h 49m
Tomorrow will be 2m 22s shorter.
Nouvelle lune, 2% of the Moon is Illuminated
Aujourd'hui
Nouvelle lune
Oct 30
Premier quartier
Nov 6
Pleine lune
Nov 14
Dernier quartier
Nov 22
Nouveau

Extrêmes aujourd'hui

State Highs State Lows

Community

WunderPhotos

Upload Photos

1,764,769 Photos téléchargées !

Nearby

Épaisseur de neige

Station Depth Altitude
Pas de nouvelles chutes de neige

Activité sismique

Ville Distance Mag. Time & Date
No recent earthquake activity has been reported nearby.
Minimum magnitude displayed is 2.5.

Températures des eaux côtières

Lieu Température
Aucun rapport de station

Stations météo à proximité